Luxi, China
Current Conditions -  °F | °C
As of 4:00 PM on Saturday 25 Oct 2014 (Local Time) from ZPPP Reporting Station
Scattered Clouds Scattered Clouds  
Wind Chill: 66°   Ceiling: Unl
Heat Index: 66°   Visibility: 6mi
Dew Point: 43°   Wind: 13mph
Humidity: 43%   Direction: 220°SW
Pressure: 30.24"   Gusts: NA
Location:  24.53°N, 103.77°E
Report Text: ZPPP 250800Z 22006MPS 190V250 9999 SCT023 19/06 Q1024 NOSIG
Loading
Personal Weather Stations






























Interactive Weather Map
Tropical Storm Tracking
New forecast layout! Learn more

10-Day Weather Forecast

Advertisements
Track Severe Weather on mobile